Siedlce, Poland
Current Conditions -  °F | °C
As of 6:00 AM on Thursday 29 Jan 2015 (Local Time) from EPWA Reporting Station
Broken Clouds Broken Clouds  
Wind Chill: 24°   Ceiling: 4300
Heat Index: 34°   Visibility: 6mi
Dew Point: 25°   Wind: 14mph
Humidity: 70%   Direction: 200°SSW
Pressure: 29.38"   Gusts: NA
Location:  52.17°N, 22.28°E
Report Text: EPWA 290400Z 20012KT 9999 BKN043 01/M04 Q0995 BECMG BKN015
Loading
Personal Weather Stations






























Interactive Weather Map New forecast layout! Learn more

10-Day Weather Forecast

Advertisements
Track Severe Weather on mobile